Time;durP1;ratioP1;P1;durP2;ratioP2;P2;SDS_P1;SDS_P2;PMS_P1;PMS_P2;Temp;Humidity;BMP_temperature;BMP_pressure;BME280_temperature;BME280_humidity;BME280_pressure;Samples;Min_cycle;Max_cycle;Signal;HPM_P1;HPM_P2
2022/03/22 00:01:16;;;;;;;23.33;13.82;;;;;;;;;;5054359;28;20454;-72
2022/03/22 00:03:45;;;;;;;24.90;13.98;;;;;;;;;;5053096;28;20029;-70
2022/03/22 00:06:10;;;;;;;25.58;13.75;;;;;;;;;;5053714;28;20441;-70
2022/03/22 00:08:36;;;;;;;21.42;13.32;;;;;;;;;;5053190;28;20036;-70
2022/03/22 00:11:01;;;;;;;24.58;12.70;;;;;;;;;;5053560;28;20054;-71
2022/03/22 00:13:28;;;;;;;25.25;13.32;;;;;;;;;;5053256;28;20041;-71
2022/03/22 00:16:02;;;;;;;21.63;12.82;;;;;;;;;;5053786;28;20028;-71
2022/03/22 00:18:27;;;;;;;24.33;13.35;;;;;;;;;;5052801;28;20105;-70
2022/03/22 00:20:53;;;;;;;20.58;13.35;;;;;;;;;;5053674;28;20470;-71
2022/03/22 00:23:21;;;;;;;21.50;13.10;;;;;;;;;;5052335;28;20055;-71
2022/03/22 00:25:47;;;;;;;25.55;13.52;;;;;;;;;;5053025;28;20091;-70
2022/03/22 00:28:13;;;;;;;22.38;13.15;;;;;;;;;;5052663;28;20383;-70
2022/03/22 00:30:39;;;;;;;23.13;13.40;;;;;;;;;;5051484;28;20470;-70
2022/03/22 00:33:06;;;;;;;26.48;14.02;;;;;;;;;;5053648;28;20033;-71
2022/03/22 00:35:36;;;;;;;23.75;13.50;;;;;;;;;;5052625;28;20029;-70
2022/03/22 00:38:03;;;;;;;23.80;13.75;;;;;;;;;;5053201;28;20033;-70
2022/03/22 00:40:31;;;;;;;30.17;13.95;;;;;;;;;;5052585;28;20130;-69
2022/03/22 00:42:58;;;;;;;24.58;13.38;;;;;;;;;;5052039;28;20038;-71
2022/03/22 00:45:27;;;;;;;24.25;13.38;;;;;;;;;;5053227;28;20033;-70
2022/03/22 00:47:54;;;;;;;26.48;13.15;;;;;;;;;;5053107;28;20031;-70
2022/03/22 00:50:27;;;;;;;25.77;12.52;;;;;;;;;;5051731;28;20079;-69
2022/03/22 00:52:53;;;;;;;23.33;12.98;;;;;;;;;;5053359;28;20087;-69
2022/03/22 00:55:21;;;;;;;24.27;13.07;;;;;;;;;;5052673;28;20032;-71
2022/03/22 00:57:47;;;;;;;21.83;12.18;;;;;;;;;;5051979;28;20036;-71
2022/03/22 01:00:13;;;;;;;22.40;12.90;;;;;;;;;;5052529;28;20039;-70
2022/03/22 01:02:41;;;;;;;22.67;12.70;;;;;;;;;;5051969;28;20035;-71
2022/03/22 01:05:13;;;;;;;22.30;13.02;;;;;;;;;;5052773;28;20032;-71
2022/03/22 01:07:43;;;;;;;21.13;13.00;;;;;;;;;;5052127;28;20108;-71
2022/03/22 01:10:10;;;;;;;23.75;13.40;;;;;;;;;;5052347;28;20524;-71
2022/03/22 01:12:37;;;;;;;24.13;12.52;;;;;;;;;;5050907;28;20025;-71
2022/03/22 01:15:05;;;;;;;24.33;13.57;;;;;;;;;;5052874;28;20032;-71
2022/03/22 01:17:31;;;;;;;20.63;12.07;;;;;;;;;;5051299;28;20033;-70
2022/03/22 01:19:57;;;;;;;21.90;12.55;;;;;;;;;;5051870;28;20383;-70
2022/03/22 01:22:24;;;;;;;23.58;12.93;;;;;;;;;;5052463;28;20419;-70
2022/03/22 01:24:52;;;;;;;25.75;12.70;;;;;;;;;;5051490;28;20040;-71
2022/03/22 01:27:20;;;;;;;21.77;12.73;;;;;;;;;;5052397;28;20033;-72
2022/03/22 01:29:47;;;;;;;23.35;12.57;;;;;;;;;;5051358;28;20162;-71
2022/03/22 01:32:12;;;;;;;22.67;12.48;;;;;;;;;;5052359;28;20540;-71
2022/03/22 01:34:38;;;;;;;20.73;12.30;;;;;;;;;;5051413;28;20056;-71
2022/03/22 01:37:04;;;;;;;21.10;12.15;;;;;;;;;;5052590;28;20486;-71
2022/03/22 01:39:29;;;;;;;22.45;12.50;;;;;;;;;;5049224;28;20482;-67
2022/03/22 01:41:55;;;;;;;23.50;13.30;;;;;;;;;;5052005;28;20032;-70
2022/03/22 01:44:20;;;;;;;24.52;12.32;;;;;;;;;;5050980;28;20389;-70
2022/03/22 01:46:47;;;;;;;23.17;12.98;;;;;;;;;;5051609;28;20029;-70
2022/03/22 01:49:12;;;;;;;21.73;12.90;;;;;;;;;;5052060;28;20052;-71
2022/03/22 01:51:38;;;;;;;21.90;12.93;;;;;;;;;;5051544;28;20466;-70
2022/03/22 01:54:04;;;;;;;22.25;12.60;;;;;;;;;;5052193;28;20036;-70
2022/03/22 01:56:30;;;;;;;19.58;11.73;;;;;;;;;;5051496;28;20037;-65
2022/03/22 01:58:56;;;;;;;23.05;13.48;;;;;;;;;;5051869;28;20025;-69
2022/03/22 02:06:54;;;;;;;20.88;12.65;;;;;;;;;;5051439;28;20099;-70
2022/03/22 02:09:19;;;;;;;22.35;12.82;;;;;;;;;;5051936;28;20036;-68
2022/03/22 02:11:45;;;;;;;23.92;13.00;;;;;;;;;;5050120;28;20040;-71
2022/03/22 02:14:10;;;;;;;23.30;12.65;;;;;;;;;;5051858;28;20041;-71
2022/03/22 02:16:36;;;;;;;24.15;13.07;;;;;;;;;;5050951;28;20056;-70
2022/03/22 02:19:01;;;;;;;22.92;12.50;;;;;;;;;;5051881;28;20021;-71
2022/03/22 02:21:40;;;;;;;25.02;13.00;;;;;;;;;;5051842;28;20086;-70
2022/03/22 02:24:34;;;;;;;21.83;12.68;;;;;;;;;;5051805;28;20029;-70
2022/03/22 02:27:00;;;;;;;23.48;12.88;;;;;;;;;;5051841;28;20119;-70
2022/03/22 02:29:25;;;;;;;20.25;12.43;;;;;;;;;;5050191;28;20123;-70
2022/03/22 02:31:53;;;;;;;21.33;12.82;;;;;;;;;;5049978;28;20039;-69
2022/03/22 02:34:18;;;;;;;24.00;13.07;;;;;;;;;;5051526;28;20033;-70
2022/03/22 02:36:44;;;;;;;23.63;13.30;;;;;;;;;;5051146;28;20424;-70
2022/03/22 02:39:10;;;;;;;21.85;12.40;;;;;;;;;;5051334;28;20033;-70
2022/03/22 02:41:36;;;;;;;24.00;12.27;;;;;;;;;;5049837;28;20021;-70
2022/03/22 02:44:01;;;;;;;24.10;12.43;;;;;;;;;;5051679;28;20483;-70
2022/03/22 02:46:27;;;;;;;21.67;12.27;;;;;;;;;;5051680;28;20033;-70
2022/03/22 02:48:52;;;;;;;23.80;12.75;;;;;;;;;;5050997;28;20266;-70
2022/03/22 02:51:17;;;;;;;23.65;12.65;;;;;;;;;;5053820;28;20028;-70
2022/03/22 02:53:43;;;;;;;20.20;11.70;;;;;;;;;;5053420;28;20033;-69
2022/03/22 02:56:09;;;;;;;22.08;12.45;;;;;;;;;;5043549;28;20519;-71
2022/03/22 02:58:35;;;;;;;22.67;12.20;;;;;;;;;;5034633;28;20029;-67
2022/03/22 03:01:01;;;;;;;24.67;13.27;;;;;;;;;;5033898;28;20064;-70
2022/03/22 03:03:27;;;;;;;26.52;12.65;;;;;;;;;;5035109;28;20459;-70
2022/03/22 03:05:53;;;;;;;22.75;12.75;;;;;;;;;;5034212;28;20383;-70
2022/03/22 03:08:19;;;;;;;22.70;12.02;;;;;;;;;;5034812;28;20116;-70
2022/03/22 03:10:46;;;;;;;24.88;12.43;;;;;;;;;;5034362;28;20037;-69
2022/03/22 03:13:12;;;;;;;20.35;11.93;;;;;;;;;;5033740;28;20379;-70
2022/03/22 03:15:37;;;;;;;21.02;12.60;;;;;;;;;;5034296;28;20040;-69
2022/03/22 03:18:03;;;;;;;21.58;12.00;;;;;;;;;;5034859;28;20104;-71
2022/03/22 03:20:29;;;;;;;23.30;11.73;;;;;;;;;;5034797;28;20033;-69
2022/03/22 03:22:54;;;;;;;24.45;12.43;;;;;;;;;;5034119;28;20116;-70
2022/03/22 03:25:19;;;;;;;19.85;11.73;;;;;;;;;;5034755;28;20029;-70
2022/03/22 03:27:45;;;;;;;26.52;12.70;;;;;;;;;;5034064;28;20059;-69
2022/03/22 03:30:11;;;;;;;21.38;11.57;;;;;;;;;;5034615;28;20052;-69
2022/03/22 03:32:36;;;;;;;23.20;11.80;;;;;;;;;;5034368;28;20140;-66
2022/03/22 03:35:03;;;;;;;20.90;11.55;;;;;;;;;;5034294;28;20031;-70
2022/03/22 03:37:35;;;;;;;18.88;11.02;;;;;;;;;;5034156;28;20029;-70
2022/03/22 03:40:01;;;;;;;19.83;10.32;;;;;;;;;;5033519;28;20029;-70
2022/03/22 03:42:27;;;;;;;22.50;10.98;;;;;;;;;;5034350;28;20021;-69
2022/03/22 03:47:36;;;;;;;19.33;11.65;;;;;;;;;;5034405;28;20040;-70
2022/03/22 03:50:05;;;;;;;16.90;10.27;;;;;;;;;;5034469;28;20033;-69
2022/03/22 03:52:37;;;;;;;20.65;11.38;;;;;;;;;;5034232;28;20037;-70
2022/03/22 03:55:07;;;;;;;19.85;11.52;;;;;;;;;;5034170;28;20030;-70
2022/03/22 03:57:33;;;;;;;20.35;11.40;;;;;;;;;;5034106;28;20083;-70
2022/03/22 03:59:59;;;;;;;19.98;10.85;;;;;;;;;;5033372;28;20046;-70
2022/03/22 04:02:25;;;;;;;23.50;11.52;;;;;;;;;;5032818;28;20038;-72
2022/03/22 04:04:55;;;;;;;19.58;11.05;;;;;;;;;;5033474;28;20048;-70
2022/03/22 04:07:23;;;;;;;21.20;11.10;;;;;;;;;;5034235;28;20022;-70
2022/03/22 04:09:49;;;;;;;20.95;11.20;;;;;;;;;;5032802;28;20045;-70
2022/03/22 04:12:15;;;;;;;21.55;12.00;;;;;;;;;;5033725;28;20030;-69
2022/03/22 04:14:40;;;;;;;19.77;11.73;;;;;;;;;;5033155;28;20152;-69
2022/03/22 04:17:08;;;;;;;23.02;12.02;;;;;;;;;;5033747;28;20053;-69
2022/03/22 04:19:36;;;;;;;22.08;12.00;;;;;;;;;;5032388;28;20426;-71
2022/03/22 04:22:03;;;;;;;20.77;12.07;;;;;;;;;;5032207;28;20124;-71
2022/03/22 04:24:29;;;;;;;22.60;11.35;;;;;;;;;;5033347;28;20041;-72
2022/03/22 04:32:41;;;;;;;21.25;11.48;;;;;;;;;;5032481;28;20060;-70
2022/03/22 04:32:42;;;;;;;22.63;12.32;;;;;;;;;;5033056;28;20083;-70
2022/03/22 04:35:19;;;;;;;20.83;11.68;;;;;;;;;;5033643;28;20119;-70
2022/03/22 04:37:47;;;;;;;20.38;11.63;;;;;;;;;;5032588;28;20030;-70
2022/03/22 04:40:14;;;;;;;21.95;11.50;;;;;;;;;;5033216;28;20032;-72
2022/03/22 04:42:40;;;;;;;24.10;11.68;;;;;;;;;;5048327;28;20037;-70
2022/03/22 04:45:06;;;;;;;20.13;11.23;;;;;;;;;;5033150;28;20034;-70
2022/03/22 04:47:32;;;;;;;22.92;12.07;;;;;;;;;;5033219;28;20034;-69
2022/03/22 04:49:58;;;;;;;20.20;11.68;;;;;;;;;;5032229;28;20037;-68
2022/03/22 04:57:52;;;;;;;23.20;13.13;;;;;;;;;;5032452;28;20106;-68
2022/03/22 05:00:18;;;;;;;23.73;12.18;;;;;;;;;;5032731;28;20112;-72
2022/03/22 05:02:44;;;;;;;23.15;12.35;;;;;;;;;;5031096;28;20026;-68
2022/03/22 05:05:09;;;;;;;24.85;12.18;;;;;;;;;;5032992;28;20479;-70
2022/03/22 05:07:34;;;;;;;25.77;13.45;;;;;;;;;;5032861;28;20040;-69
2022/03/22 05:10:00;;;;;;;22.88;12.90;;;;;;;;;;5031959;28;20044;-69
2022/03/22 05:12:25;;;;;;;23.17;13.45;;;;;;;;;;5032838;28;20450;-69
2022/03/22 05:14:51;;;;;;;28.23;13.35;;;;;;;;;;5032175;28;20064;-68
2022/03/22 05:17:23;;;;;;;23.55;13.13;;;;;;;;;;5032653;28;20383;-70
2022/03/22 05:19:50;;;;;;;25.08;14.27;;;;;;;;;;5046515;28;20083;-68
2022/03/22 05:22:15;;;;;;;25.33;13.15;;;;;;;;;;5032338;28;20059;-69
2022/03/22 05:24:41;;;;;;;24.58;13.35;;;;;;;;;;5032688;28;20025;-70
2022/03/22 05:27:07;;;;;;;24.70;13.48;;;;;;;;;;5031708;28;20033;-70
2022/03/22 05:29:32;;;;;;;29.50;13.65;;;;;;;;;;5032982;28;20410;-69
2022/03/22 05:31:57;;;;;;;23.88;13.52;;;;;;;;;;5031682;28;20037;-70
2022/03/22 05:34:23;;;;;;;24.85;13.85;;;;;;;;;;5031209;28;20037;-70
2022/03/22 05:36:49;;;;;;;27.05;13.32;;;;;;;;;;5031853;28;20040;-70
2022/03/22 05:39:14;;;;;;;28.33;14.13;;;;;;;;;;5032442;28;20034;-69
2022/03/22 05:41:40;;;;;;;23.95;13.35;;;;;;;;;;5032312;28;20037;-69
2022/03/22 05:44:05;;;;;;;24.83;13.88;;;;;;;;;;5031708;28;20116;-70
2022/03/22 05:46:31;;;;;;;26.13;14.15;;;;;;;;;;5032429;28;20052;-70
2022/03/22 05:48:57;;;;;;;25.88;14.18;;;;;;;;;;5031752;28;20030;-68
2022/03/22 05:51:23;;;;;;;26.05;14.43;;;;;;;;;;5032230;28;20156;-69
2022/03/22 05:53:48;;;;;;;29.83;15.18;;;;;;;;;;5031435;28;20120;-68
2022/03/22 05:56:14;;;;;;;27.80;14.43;;;;;;;;;;5032249;28;20435;-70
2022/03/22 05:58:39;;;;;;;26.60;15.43;;;;;;;;;;5032485;28;20029;-70
2022/03/22 06:01:06;;;;;;;31.48;14.85;;;;;;;;;;5030251;28;20036;-69
2022/03/22 06:03:33;;;;;;;29.55;15.60;;;;;;;;;;5032224;28;20383;-70
2022/03/22 06:05:58;;;;;;;30.17;16.08;;;;;;;;;;5031560;28;20022;-69
2022/03/22 06:08:24;;;;;;;30.85;15.02;;;;;;;;;;5031948;28;20091;-70
2022/03/22 06:10:49;;;;;;;27.00;15.82;;;;;;;;;;5031382;28;20467;-70
2022/03/22 06:13:14;;;;;;;25.73;15.18;;;;;;;;;;5032266;28;20387;-73
2022/03/22 06:15:40;;;;;;;29.92;16.98;;;;;;;;;;5031010;28;20022;-70
2022/03/22 06:18:09;;;;;;;31.63;15.95;;;;;;;;;;5031497;28;20049;-70
2022/03/22 06:20:43;;;;;;;28.17;14.75;;;;;;;;;;5031974;28;20038;-70
2022/03/22 06:23:11;;;;;;;28.02;15.98;;;;;;;;;;5031407;28;20057;-70
2022/03/22 06:25:37;;;;;;;29.17;15.82;;;;;;;;;;5033059;28;20435;-70
2022/03/22 06:28:04;;;;;;;32.28;16.15;;;;;;;;;;5034084;28;20080;-70
2022/03/22 06:30:30;;;;;;;28.98;15.70;;;;;;;;;;5035705;28;20036;-70
2022/03/22 06:32:58;;;;;;;28.92;15.93;;;;;;;;;;5035353;28;20037;-69
2022/03/22 06:35:30;;;;;;;31.55;16.05;;;;;;;;;;5035845;28;20425;-70
2022/03/22 06:37:57;;;;;;;32.13;16.40;;;;;;;;;;5035267;28;20036;-70
2022/03/22 06:40:24;;;;;;;30.08;15.93;;;;;;;;;;5035649;28;20037;-70
2022/03/22 06:42:49;;;;;;;29.33;15.98;;;;;;;;;;5035014;28;20083;-69
2022/03/22 06:45:16;;;;;;;27.23;15.77;;;;;;;;;;5035687;28;20101;-69
2022/03/22 06:47:43;;;;;;;25.42;14.68;;;;;;;;;;5035618;28;20107;-70
2022/03/22 06:50:13;;;;;;;31.10;15.93;;;;;;;;;;5033588;28;20059;-69
2022/03/22 06:52:38;;;;;;;27.40;15.40;;;;;;;;;;5035542;28;20068;-69
2022/03/22 06:55:05;;;;;;;28.23;15.50;;;;;;;;;;5034948;28;20034;-70
2022/03/22 06:57:31;;;;;;;27.25;14.48;;;;;;;;;;5035562;28;20026;-71
2022/03/22 06:59:58;;;;;;;26.52;14.90;;;;;;;;;;5034757;28;20029;-69
2022/03/22 07:02:24;;;;;;;29.63;15.95;;;;;;;;;;5034888;28;20033;-69
2022/03/22 07:04:49;;;;;;;27.40;14.98;;;;;;;;;;5033572;28;20387;-68
2022/03/22 07:07:15;;;;;;;26.85;14.85;;;;;;;;;;5035291;28;20107;-71
2022/03/22 07:09:43;;;;;;;24.52;14.55;;;;;;;;;;5035230;28;20116;-70
2022/03/22 07:12:10;;;;;;;25.65;14.82;;;;;;;;;;5034484;28;20820;-70
2022/03/22 07:14:38;;;;;;;25.80;14.73;;;;;;;;;;5050462;28;20065;-70
2022/03/22 07:17:04;;;;;;;25.08;14.20;;;;;;;;;;5034455;28;20124;-69
2022/03/22 07:19:30;;;;;;;22.80;13.52;;;;;;;;;;5033843;28;20120;-71
2022/03/22 07:21:57;;;;;;;24.48;14.40;;;;;;;;;;5034011;28;20077;-70
2022/03/22 07:24:22;;;;;;;25.20;14.98;;;;;;;;;;5034980;28;20040;-69
2022/03/22 07:26:48;;;;;;;24.65;14.63;;;;;;;;;;5034965;28;20187;-69
2022/03/22 07:29:13;;;;;;;28.48;14.60;;;;;;;;;;5034356;28;20463;-69
2022/03/22 07:31:39;;;;;;;25.45;14.88;;;;;;;;;;5034589;28;20033;-70
2022/03/22 07:34:06;;;;;;;23.40;13.85;;;;;;;;;;5032988;28;20029;-69
2022/03/22 07:36:32;;;;;;;27.38;14.38;;;;;;;;;;5033761;28;20029;-69
2022/03/22 07:38:57;;;;;;;28.45;14.63;;;;;;;;;;5033740;28;20047;-68
2022/03/22 07:41:23;;;;;;;23.20;13.95;;;;;;;;;;5034216;28;20467;-69
2022/03/22 07:43:48;;;;;;;26.80;14.70;;;;;;;;;;5034630;28;20034;-70
2022/03/22 07:46:14;;;;;;;24.90;14.65;;;;;;;;;;5033923;28;20030;-69
2022/03/22 07:48:39;;;;;;;25.65;14.65;;;;;;;;;;5034457;28;20459;-70
2022/03/22 07:53:48;;;;;;;24.88;14.05;;;;;;;;;;5034372;28;20549;-70
2022/03/22 07:56:14;;;;;;;31.38;15.05;;;;;;;;;;5033524;28;20463;-70
2022/03/22 07:58:39;;;;;;;26.63;15.20;;;;;;;;;;5032841;28;20060;-70
2022/03/22 08:01:05;;;;;;;34.03;16.30;;;;;;;;;;5033688;28;20040;-70
2022/03/22 08:03:30;;;;;;;27.27;15.52;;;;;;;;;;5034225;28;20478;-68
2022/03/22 08:05:56;;;;;;;26.33;15.68;;;;;;;;;;5033536;28;20033;-68
2022/03/22 08:08:21;;;;;;;26.52;15.52;;;;;;;;;;5034199;28;20026;-69
2022/03/22 08:10:47;;;;;;;32.63;15.80;;;;;;;;;;5034084;28;20029;-69
2022/03/22 08:13:13;;;;;;;28.80;15.05;;;;;;;;;;5033570;28;20435;-70
2022/03/22 08:15:39;;;;;;;28.15;14.45;;;;;;;;;;5034025;28;20518;-69
2022/03/22 08:18:05;;;;;;;23.10;14.23;;;;;;;;;;5033385;28;20035;-70
2022/03/22 08:20:31;;;;;;;25.02;15.10;;;;;;;;;;5032540;28;20025;-70
2022/03/22 08:23:03;;;;;;;23.20;13.20;;;;;;;;;;5032842;28;20041;-69
2022/03/22 08:25:31;;;;;;;26.35;13.38;;;;;;;;;;5033550;28;20036;-70
2022/03/22 08:27:59;;;;;;;22.85;13.60;;;;;;;;;;5031750;28;20131;-69
2022/03/22 08:30:26;;;;;;;21.15;13.60;;;;;;;;;;5033282;28;20468;-70
2022/03/22 08:32:54;;;;;;;22.48;14.35;;;;;;;;;;5033507;28;20098;-70
2022/03/22 08:35:20;;;;;;;26.08;14.13;;;;;;;;;;5032274;28;20087;-70
2022/03/22 08:37:46;;;;;;;26.23;14.38;;;;;;;;;;5033444;28;20021;-70
2022/03/22 08:40:14;;;;;;;24.65;13.77;;;;;;;;;;5032761;28;20479;-70
2022/03/22 08:42:43;;;;;;;27.02;12.98;;;;;;;;;;5033418;28;20482;-69
2022/03/22 08:45:23;;;;;;;20.55;12.95;;;;;;;;;;5033200;28;20579;-69
2022/03/22 08:47:50;;;;;;;24.27;13.35;;;;;;;;;;5032928;28;20083;-70
2022/03/22 08:50:21;;;;;;;22.85;13.75;;;;;;;;;;5031482;28;20464;-70
2022/03/22 08:52:49;;;;;;;23.63;13.25;;;;;;;;;;5033264;28;20103;-70
2022/03/22 08:55:17;;;;;;;25.17;13.20;;;;;;;;;;5032556;28;20115;-70
2022/03/22 08:57:43;;;;;;;24.27;12.95;;;;;;;;;;5033215;28;20060;-70
2022/03/22 09:00:11;;;;;;;27.70;13.88;;;;;;;;;;5032556;28;20037;-70
2022/03/22 09:02:37;;;;;;;23.50;13.60;;;;;;;;;;5032624;28;20482;-70
2022/03/22 09:07:50;;;;;;;21.70;13.10;;;;;;;;;;5033106;28;20449;-69
2022/03/22 09:10:18;;;;;;;24.42;13.52;;;;;;;;;;5032766;28;20240;-69
2022/03/22 09:12:43;;;;;;;22.40;13.65;;;;;;;;;;5032740;28;20030;-70
2022/03/22 09:15:19;;;;;;;21.15;12.68;;;;;;;;;;5030966;28;20040;-70
2022/03/22 09:17:54;;;;;;;24.15;12.65;;;;;;;;;;5032844;28;20444;-70
2022/03/22 09:20:20;;;;;;;22.95;13.43;;;;;;;;;;5031051;28;20032;-70
2022/03/22 09:22:49;;;;;;;25.33;13.07;;;;;;;;;;5032749;28;20050;-69
2022/03/22 09:25:16;;;;;;;20.80;13.07;;;;;;;;;;5047553;28;20025;-69
2022/03/22 09:27:42;;;;;;;20.75;12.55;;;;;;;;;;5031149;28;20033;-70
2022/03/22 09:30:09;;;;;;;22.48;12.57;;;;;;;;;;5031766;28;20037;-69
2022/03/22 09:32:36;;;;;;;21.52;12.75;;;;;;;;;;5032427;28;20040;-69
2022/03/22 09:35:06;;;;;;;20.77;13.02;;;;;;;;;;5031878;28;20035;-69
2022/03/22 09:37:32;;;;;;;25.53;13.40;;;;;;;;;;5032345;28;20459;-70
2022/03/22 09:40:17;;;;;;;23.88;12.93;;;;;;;;;;5031901;28;20033;-65
2022/03/22 09:42:45;;;;;;;20.92;12.32;;;;;;;;;;5047754;28;20116;-70
2022/03/22 09:45:13;;;;;;;22.20;12.75;;;;;;;;;;5031958;28;20025;-70
2022/03/22 09:47:41;;;;;;;22.27;12.32;;;;;;;;;;5032132;28;20264;-69
2022/03/22 09:50:08;;;;;;;22.42;13.50;;;;;;;;;;5031712;28;20033;-69
2022/03/22 09:52:38;;;;;;;22.45;12.93;;;;;;;;;;5032667;28;20095;-69
2022/03/22 09:55:05;;;;;;;19.65;13.15;;;;;;;;;;5031410;28;20120;-69
2022/03/22 09:57:30;;;;;;;19.30;12.50;;;;;;;;;;5032380;28;20034;-69
2022/03/22 09:59:56;;;;;;;21.17;13.27;;;;;;;;;;5031486;28;20034;-70
2022/03/22 10:02:29;;;;;;;22.42;13.90;;;;;;;;;;5031550;28;20037;-69
2022/03/22 10:04:55;;;;;;;25.63;14.68;;;;;;;;;;5030919;28;20124;-69
2022/03/22 10:07:22;;;;;;;21.20;13.73;;;;;;;;;;5031626;28;20117;-71
2022/03/22 10:09:52;;;;;;;23.48;14.18;;;;;;;;;;5032400;28;20032;-69
2022/03/22 10:12:35;;;;;;;22.90;13.55;;;;;;;;;;5030063;28;20052;-70
2022/03/22 10:15:12;;;;;;;23.80;13.88;;;;;;;;;;5031386;28;20076;-67
2022/03/22 10:17:38;;;;;;;23.95;14.15;;;;;;;;;;5032114;28;20104;-70
2022/03/22 10:20:05;;;;;;;21.52;13.40;;;;;;;;;;5031428;28;20029;-69
2022/03/22 10:22:32;;;;;;;21.02;14.23;;;;;;;;;;5030353;28;20376;-69
2022/03/22 10:24:59;;;;;;;22.50;14.23;;;;;;;;;;5032032;28;20034;-69
2022/03/22 10:27:36;;;;;;;22.35;13.57;;;;;;;;;;5029994;28;20065;-69
2022/03/22 10:30:07;;;;;;;21.83;13.27;;;;;;;;;;5031516;28;20112;-69
2022/03/22 10:32:36;;;;;;;;;;;;;;;;;;5032112;28;20033;-69
2022/03/22 10:35:16;;;;;;;22.60;12.73;;;;;;;;;;5031403;28;19909;-65
2022/03/22 10:37:49;;;;;;;21.27;13.23;;;;;;;;;;5032089;28;20063;-68
2022/03/22 10:40:32;;;;;;;23.42;13.55;;;;;;;;;;5046794;28;20041;-68
2022/03/22 10:43:09;;;;;;;23.92;13.30;;;;;;;;;;5030561;28;20026;-68
2022/03/22 10:45:48;;;;;;;22.08;13.70;;;;;;;;;;5031729;28;20040;-69
2022/03/22 10:48:22;;;;;;;25.13;14.10;;;;;;;;;;5031156;28;20545;-68
2022/03/22 10:50:49;;;;;;;22.42;13.48;;;;;;;;;;5031918;28;20037;-68
2022/03/22 10:53:17;;;;;;;25.65;13.95;;;;;;;;;;5031102;28;20120;-67
2022/03/22 10:55:44;;;;;;;24.90;13.98;;;;;;;;;;5032113;28;20095;-69
2022/03/22 10:58:12;;;;;;;22.95;13.80;;;;;;;;;;5031106;28;20037;-68
2022/03/22 11:00:39;;;;;;;23.20;13.07;;;;;;;;;;5031923;28;20034;-69
2022/03/22 11:03:05;;;;;;;26.58;13.75;;;;;;;;;;5030947;28;20375;-68
2022/03/22 11:05:33;;;;;;;23.55;13.60;;;;;;;;;;5031813;28;20120;-69
2022/03/22 11:07:59;;;;;;;22.17;13.10;;;;;;;;;;5031673;28;20032;-69
2022/03/22 11:10:28;;;;;;;21.20;12.43;;;;;;;;;;5029623;28;20033;-69
2022/03/22 11:12:54;;;;;;;20.30;12.98;;;;;;;;;;5034740;28;20026;-68
2022/03/22 11:15:21;;;;;;;20.98;12.35;;;;;;;;;;5034477;28;20044;-69
2022/03/22 11:17:49;;;;;;;18.88;11.88;;;;;;;;;;5035099;28;20083;-69
2022/03/22 11:20:15;;;;;;;22.05;12.70;;;;;;;;;;5034341;28;20072;-69
2022/03/22 11:22:54;;;;;;;20.17;12.85;;;;;;;;;;5034452;28;20502;-69
2022/03/22 11:25:35;;;;;;;22.05;13.35;;;;;;;;;;5034293;28;20475;-70
2022/03/22 11:28:03;;;;;;;;;;;;;;;;;;5035437;28;20108;-68
2022/03/22 11:30:30;;;;;;;20.88;12.77;;;;;;;;;;5033159;28;19913;-68
2022/03/22 11:35:49;;;;;;;21.73;13.35;;;;;;;;;;5034584;28;20044;-69
2022/03/22 11:38:35;;;;;;;22.60;13.60;;;;;;;;;;5034198;28;20033;-68
2022/03/22 11:43:44;;;;;;;23.13;14.45;;;;;;;;;;5034278;28;20116;-69
2022/03/22 11:46:10;;;;;;;21.45;12.95;;;;;;;;;;5033949;28;20057;-68
2022/03/22 11:48:39;;;;;;;25.05;13.27;;;;;;;;;;5034482;28;20040;-68
2022/03/22 11:51:09;;;;;;;21.35;12.30;;;;;;;;;;5034508;28;20037;-69
2022/03/22 11:53:42;;;;;;;17.23;11.35;;;;;;;;;;5033204;28;20029;-68
2022/03/22 11:56:09;;;;;;;17.83;11.32;;;;;;;;;;5033709;28;20479;-67
2022/03/22 11:58:34;;;;;;;16.25;11.27;;;;;;;;;;5034289;28;20034;-68
2022/03/22 12:01:01;;;;;;;18.33;11.18;;;;;;;;;;5034359;28;20123;-68
2022/03/22 12:03:32;;;;;;;19.60;10.60;;;;;;;;;;5033468;28;20390;-68
2022/03/22 12:06:08;;;;;;;17.67;9.73;;;;;;;;;;5033975;28;20095;-68
2022/03/22 12:08:35;;;;;;;18.60;10.18;;;;;;;;;;5033900;28;20029;-71
2022/03/22 12:11:00;;;;;;;20.85;10.68;;;;;;;;;;5034097;28;20029;-68
2022/03/22 12:13:26;;;;;;;19.23;10.82;;;;;;;;;;5033052;28;20744;-68
2022/03/22 12:15:59;;;;;;;15.98;9.88;;;;;;;;;;5034055;28;20455;-69
2022/03/22 12:18:32;;;;;;;21.08;9.75;;;;;;;;;;5033361;28;20029;-69
2022/03/22 12:20:58;;;;;;;17.92;10.23;;;;;;;;;;5033694;28;20037;-69
2022/03/22 12:23:25;;;;;;;18.38;10.13;;;;;;;;;;5030860;28;20045;-69
2022/03/22 12:25:51;;;;;;;16.63;10.30;;;;;;;;;;5033651;28;20033;-68
2022/03/22 12:28:17;;;;;;;19.25;10.20;;;;;;;;;;5031722;28;20426;-67
2022/03/22 12:30:44;;;;;;;17.88;10.27;;;;;;;;;;5033755;28;20033;-68
2022/03/22 12:33:13;;;;;;;18.30;9.70;;;;;;;;;;5032568;28;20045;-66
2022/03/22 12:35:39;;;;;;;14.70;9.43;;;;;;;;;;5032295;28;20060;-69
2022/03/22 12:38:06;;;;;;;15.10;9.88;;;;;;;;;;5033610;28;20459;-69
2022/03/22 12:40:32;;;;;;;18.13;10.18;;;;;;;;;;5031602;28;20037;-69
2022/03/22 12:42:58;;;;;;;14.20;9.23;;;;;;;;;;5033333;28;20044;-69
2022/03/22 12:45:25;;;;;;;16.75;9.20;;;;;;;;;;5031515;28;20387;-69
2022/03/22 12:47:52;;;;;;;17.05;9.10;;;;;;;;;;5033410;28;20030;-70
2022/03/22 12:50:20;;;;;;;16.70;9.00;;;;;;;;;;5031588;28;20044;-69
2022/03/22 12:52:46;;;;;;;18.27;9.30;;;;;;;;;;5033253;28;20022;-69
2022/03/22 12:55:13;;;;;;;17.40;9.77;;;;;;;;;;5031020;28;20041;-69
2022/03/22 12:57:42;;;;;;;13.35;9.18;;;;;;;;;;5033072;28;20030;-69
2022/03/22 13:00:09;;;;;;;15.25;9.77;;;;;;;;;;5032846;28;20037;-69
2022/03/22 13:02:38;;;;;;;19.65;9.70;;;;;;;;;;5032541;28;20052;-68
2022/03/22 13:05:05;;;;;;;17.02;10.18;;;;;;;;;;5031705;28;20029;-68
2022/03/22 13:07:31;;;;;;;17.63;9.55;;;;;;;;;;5031948;28;20537;-70
2022/03/22 13:12:43;;;;;;;14.23;9.32;;;;;;;;;;5032983;28;20099;-68
2022/03/22 13:15:15;;;;;;;15.55;9.50;;;;;;;;;;5033081;28;20064;-66
2022/03/22 13:17:46;;;;;;;17.00;10.07;;;;;;;;;;5032892;28;20112;-69
2022/03/22 13:20:24;;;;;;;17.55;9.55;;;;;;;;;;5031134;28;20538;-64
2022/03/22 13:22:53;;;;;;;16.00;9.38;;;;;;;;;;5032107;28;20416;-69
2022/03/22 13:25:30;;;;;;;16.80;9.57;;;;;;;;;;5032146;28;20372;-69
2022/03/22 13:28:00;;;;;;;17.38;10.00;;;;;;;;;;5032870;28;20026;-67
2022/03/22 13:30:27;;;;;;;;;;;;;;;;;;5032310;28;20029;-67
2022/03/22 13:32:53;;;;;;;16.77;9.25;;;;;;;;;;5030947;28;19909;-69
2022/03/22 13:35:20;;;;;;;19.00;9.32;;;;;;;;;;5031644;28;20037;-70
2022/03/22 13:37:50;;;;;;;17.70;9.00;;;;;;;;;;5032288;28;20364;-69
2022/03/22 13:40:17;;;;;;;19.67;7.72;;;;;;;;;;5030434;28;20038;-69
2022/03/22 13:42:56;;;;;;;17.48;8.75;;;;;;;;;;5032269;28;20044;-70
2022/03/22 13:45:23;;;;;;;15.35;8.95;;;;;;;;;;5032095;28;20123;-68
2022/03/22 13:47:51;;;;;;;14.02;6.93;;;;;;;;;;5032191;28;20395;-69
2022/03/22 13:50:20;;;;;;;11.27;6.63;;;;;;;;;;5030190;28;20486;-68
2022/03/22 13:52:59;;;;;;;14.07;7.30;;;;;;;;;;5032247;28;20037;-68
2022/03/22 13:55:26;;;;;;;14.50;8.95;;;;;;;;;;5031807;28;20029;-68
2022/03/22 13:57:57;;;;;;;19.10;8.70;;;;;;;;;;5032098;28;20037;-69
2022/03/22 14:00:22;;;;;;;;;;;;;;;;;;5030764;28;20025;-68
2022/03/22 14:02:50;;;;;;;18.52;8.48;;;;;;;;;;5030765;28;19913;-69
2022/03/22 14:05:16;;;;;;;13.15;7.80;;;;;;;;;;5030315;28;20107;-68
2022/03/22 14:07:54;;;;;;;14.05;8.30;;;;;;;;;;5032075;28;20456;-69
2022/03/22 14:10:20;;;;;;;16.08;7.65;;;;;;;;;;5031434;28;20029;-68
2022/03/22 14:12:46;;;;;;;13.25;7.43;;;;;;;;;;5030501;28;20455;-68
2022/03/22 14:15:13;;;;;;;12.88;7.82;;;;;;;;;;5031756;28;20034;-69
2022/03/22 14:17:38;;;;;;;15.32;7.82;;;;;;;;;;5030914;28;20032;-68
2022/03/22 14:20:05;;;;;;;15.40;7.47;;;;;;;;;;5032061;28;20025;-70
2022/03/22 14:22:31;;;;;;;14.27;6.53;;;;;;;;;;5029615;28;20491;-69
2022/03/22 14:24:57;;;;;;;17.58;5.78;;;;;;;;;;5032290;28;20034;-70
2022/03/22 14:27:22;;;;;;;13.55;5.40;;;;;;;;;;5031002;28;20031;-68
2022/03/22 14:29:47;;;;;;;11.95;5.72;;;;;;;;;;5031954;28;20486;-69
2022/03/22 14:32:13;;;;;;;13.93;5.38;;;;;;;;;;5031829;28;20028;-69
2022/03/22 14:37:22;;;;;;;13.43;5.43;;;;;;;;;;5031105;28;20040;-69
2022/03/22 14:39:48;;;;;;;12.77;5.50;;;;;;;;;;5032133;28;20025;-70
2022/03/22 14:42:14;;;;;;;13.45;6.35;;;;;;;;;;5031625;28;20036;-68
2022/03/22 14:44:41;;;;;;;13.15;6.78;;;;;;;;;;5029498;28;20029;-68
2022/03/22 14:47:07;;;;;;;16.63;7.00;;;;;;;;;;5034036;28;20033;-69
2022/03/22 14:49:32;;;;;;;15.63;7.45;;;;;;;;;;5034798;28;20025;-70
2022/03/22 14:54:42;;;;;;;12.70;7.28;;;;;;;;;;5035623;28;20132;-70
2022/03/22 14:59:51;;;;;;;13.15;7.30;;;;;;;;;;5035454;28;20402;-69
2022/03/22 15:02:17;;;;;;;14.07;7.95;;;;;;;;;;5035287;28;20025;-68